Time;durP1;ratioP1;P1;durP2;ratioP2;P2;SDS_P1;SDS_P2;PMS_P1;PMS_P2;Temp;Humidity;BMP_temperature;BMP_pressure;BME280_temperature;BME280_humidity;BME280_pressure;Samples;Min_cycle;Max_cycle;Signal;HPM_P1;HPM_P2
2021/04/26 00:00:31;;;;;;;7.97;4.73;;;;;;;19.34;45.56;99017.22;2065559;28;20018;-45
2021/04/26 00:01:31;;;;;;;10.23;5.67;;;;;;;19.34;45.53;99011.75;2060369;28;20018;-45
2021/04/26 00:02:32;;;;;;;10.10;5.77;;;;;;;19.35;45.56;99024.38;2063923;28;20027;-44
2021/04/26 00:03:33;;;;;;;7.93;5.37;;;;;;;19.35;45.55;99013.44;2059541;28;20023;-45
2021/04/26 00:04:33;;;;;;;6.90;5.00;;;;;;;19.35;45.70;99010.69;2062070;28;20023;-45
2021/04/26 00:05:34;;;;;;;7.57;5.27;;;;;;;19.34;45.62;99007.13;2055894;28;20081;-48
2021/04/26 00:06:34;;;;;;;6.87;5.27;;;;;;;19.34;45.72;99011.75;2068002;28;20030;-45
2021/04/26 00:07:35;;;;;;;7.93;4.83;;;;;;;19.35;45.61;99007.97;2071682;28;20492;-43
2021/04/26 00:08:35;;;;;;;8.20;4.93;;;;;;;19.33;45.60;99008.16;2057947;28;20687;-46
2021/04/26 00:09:36;;;;;;;7.00;4.93;;;;;;;19.34;45.71;99000.81;2057704;28;20089;-46
2021/04/26 00:10:36;;;;;;;7.40;4.93;;;;;;;19.33;45.64;99005.44;2063305;28;20037;-45
2021/04/26 00:11:37;;;;;;;6.83;5.27;;;;;;;19.32;45.63;98998.25;2058635;28;20050;-44
2021/04/26 00:12:38;;;;;;;8.23;5.13;;;;;;;19.33;45.59;98993.63;2057856;28;20353;-44
2021/04/26 00:13:38;;;;;;;6.85;4.93;;;;;;;19.33;45.59;98999.09;2061504;28;20045;-45
2021/04/26 00:14:39;;;;;;;7.60;5.20;;;;;;;19.34;45.65;98989.88;2062120;28;20069;-44
2021/04/26 00:15:39;;;;;;;8.00;5.13;;;;;;;19.33;45.62;98988.16;2061599;28;20018;-45
2021/04/26 00:16:40;;;;;;;7.90;4.83;;;;;;;19.33;45.78;98982.69;2057834;28;20031;-45
2021/04/26 00:17:40;;;;;;;8.97;5.40;;;;;;;19.33;45.59;98982.69;2057773;28;20027;-45
2021/04/26 00:18:41;;;;;;;6.83;5.60;;;;;;;19.32;45.68;98975.53;2061267;28;20089;-45
2021/04/26 00:19:41;;;;;;;6.77;4.60;;;;;;;19.32;45.64;98976.38;2057159;28;20049;-47
2021/04/26 00:20:42;;;;;;;8.03;5.33;;;;;;;19.33;45.68;98974.50;2064529;28;20034;-46
2021/04/26 00:21:43;;;;;;;7.40;5.30;;;;;;;19.32;45.80;98978.28;2059969;28;20110;-44
2021/04/26 00:22:43;;;;;;;7.53;4.87;;;;;;;19.33;45.74;98982.69;2061565;28;20038;-45
2021/04/26 00:23:44;;;;;;;7.47;5.43;;;;;;;19.32;45.64;98967.34;2061975;28;20027;-44
2021/04/26 00:24:44;;;;;;;8.13;5.27;;;;;;;19.32;45.67;98972.81;2064594;28;20551;-44
2021/04/26 00:25:45;;;;;;;6.37;5.03;;;;;;;19.31;45.74;98966.50;2059165;28;20031;-45
2021/04/26 00:26:45;;;;;;;8.03;5.17;;;;;;;19.31;45.77;98966.50;2057007;28;20051;-44
2021/04/26 00:27:46;;;;;;;7.70;5.00;;;;;;;19.31;45.71;98968.41;2057335;28;20086;-44
2021/04/26 00:28:47;;;;;;;7.95;5.07;;;;;;;19.30;45.66;98959.31;2057638;28;20730;-45
2021/04/26 00:29:47;;;;;;;7.33;5.53;;;;;;;19.31;45.75;98966.50;2058012;28;20034;-48
2021/04/26 00:30:48;;;;;;;10.03;5.80;;;;;;;19.32;45.84;98964.63;2057439;28;20037;-46
2021/04/26 00:31:48;;;;;;;7.33;4.97;;;;;;;19.31;45.81;98966.50;2057774;28;20062;-44
2021/04/26 00:32:50;;;;;;;7.37;5.53;;;;;;;19.31;45.75;98957.47;2056997;28;20019;-45
2021/04/26 00:33:50;;;;;;;7.05;5.00;;;;;;;19.31;45.71;98954.72;2059816;28;21044;-45
2021/04/26 00:34:51;;;;;;;6.87;5.33;;;;;;;19.31;45.79;98957.47;2058175;28;20511;-46
2021/04/26 00:35:51;;;;;;;7.97;4.67;;;;;;;19.30;45.92;98956.59;2053791;28;20054;-44
2021/04/26 00:36:52;;;;;;;7.50;5.27;;;;;;;19.31;45.85;98949.25;2057436;28;20027;-44
2021/04/26 00:37:53;;;;;;;7.13;4.87;;;;;;;19.30;45.94;98951.13;2057607;28;20102;-44
2021/04/26 00:38:54;;;;;;;4.93;3.97;;;;;;;19.31;45.79;98943.81;2057637;28;20046;-44
2021/04/26 00:39:54;;;;;;;7.47;4.67;;;;;;;19.30;45.88;98944.81;2059311;28;20030;-45
2021/04/26 00:40:54;;;;;;;8.73;5.37;;;;;;;19.30;45.79;98940.19;2057048;28;20027;-44
2021/04/26 00:41:55;;;;;;;9.57;5.47;;;;;;;19.31;45.91;98943.81;2058100;28;20031;-44
2021/04/26 00:42:56;;;;;;;6.67;4.40;;;;;;;19.31;45.97;98935.59;2063698;28;20237;-47
2021/04/26 00:43:56;;;;;;;6.90;5.07;;;;;;;19.30;45.92;98936.63;2065551;28;20038;-45
2021/04/26 00:44:56;;;;;;;8.97;5.77;;;;;;;19.28;45.86;98937.66;2058554;28;20114;-44
2021/04/26 00:45:57;;;;;;;5.80;4.90;;;;;;;19.30;45.85;98939.34;2062132;28;20231;-45
2021/04/26 00:46:57;;;;;;;7.90;5.07;;;;;;;19.29;45.85;98941.25;2058509;28;20019;-45
2021/04/26 00:47:58;;;;;;;9.43;5.50;;;;;;;19.30;45.89;98939.34;2058058;28;20044;-46
2021/04/26 00:48:58;;;;;;;6.60;4.67;;;;;;;19.30;45.91;98944.81;2057477;28;20035;-44
2021/04/26 00:49:59;;;;;;;8.20;4.90;;;;;;;19.28;45.78;98937.66;2058949;28;20109;-46
2021/04/26 00:50:59;;;;;;;7.93;5.10;;;;;;;19.31;45.70;98943.81;2065470;28;20085;-45
2021/04/26 00:52:00;;;;;;;7.03;4.90;;;;;;;19.28;45.77;98937.66;2058531;28;20078;-44
2021/04/26 00:53:02;;;;;;;7.30;4.83;;;;;;;19.30;45.85;98950.28;2059350;28;20035;-46
2021/04/26 00:54:03;;;;;;;5.88;4.88;;;;;;;19.31;45.88;98941.06;2060634;28;20026;-45
2021/04/26 00:55:05;;;;;;;6.88;4.75;;;;;;;19.30;45.75;98944.81;2058639;28;20026;-45
2021/04/26 00:56:06;;;;;;;6.03;4.53;;;;;;;19.30;45.79;98942.06;2061523;28;20034;-45
2021/04/26 00:57:07;;;;;;;8.05;5.25;;;;;;;19.31;45.71;98941.06;2058355;28;20424;-45
2021/04/26 00:58:07;;;;;;;7.47;5.03;;;;;;;19.30;45.76;98936.63;2059677;28;20026;-46
2021/04/26 00:59:08;;;;;;;9.03;4.90;;;;;;;19.29;45.73;98941.25;2058100;28;20110;-44
2021/04/26 01:00:10;;;;;;;5.47;4.40;;;;;;;19.30;45.77;98939.34;2067215;28;20062;-44
2021/04/26 01:01:10;;;;;;;7.72;5.05;;;;;;;19.30;45.66;98939.34;2072287;28;20057;-45
2021/04/26 01:02:11;;;;;;;7.17;4.97;;;;;;;19.31;45.65;98941.06;2063946;28;20045;-45
2021/04/26 01:03:11;;;;;;;8.93;5.33;;;;;;;19.30;45.67;98933.88;2060381;28;20022;-45
2021/04/26 01:04:12;;;;;;;9.60;5.07;;;;;;;19.28;45.69;98937.66;2060010;28;20080;-45
2021/04/26 01:05:17;;;;;;;7.87;5.10;;;;;;;19.28;45.68;98932.19;2061696;28;20022;-45
2021/04/26 01:06:18;;;;;;;6.85;4.93;;;;;;;19.30;45.83;98939.34;2061577;28;20393;-45
2021/04/26 01:07:18;;;;;;;5.83;4.73;;;;;;;19.27;45.66;98941.41;2060987;28;20029;-45
2021/04/26 01:08:19;;;;;;;6.37;5.27;;;;;;;19.30;45.79;98939.34;2064565;28;20022;-44
2021/04/26 01:09:19;;;;;;;7.27;4.60;;;;;;;19.30;45.89;98947.53;2057555;28;20444;-45
2021/04/26 01:10:22;;;;;;;8.03;5.73;;;;;;;19.30;45.59;98947.53;2064554;28;20034;-45
2021/04/26 01:11:33;;;;;;;6.70;4.60;;;;;;;19.28;45.84;98945.00;2063812;28;20022;-46
2021/04/26 01:13:01;;;;;;;7.43;4.75;;;;;;;19.28;45.99;98943.13;2056790;28;20030;-45
2021/04/26 01:14:20;;;;;;;6.97;4.85;;;;;;;19.26;45.83;98939.72;2059618;28;20029;-48
2021/04/26 01:15:27;;;;;;;6.32;4.35;;;;;;;19.26;45.96;98945.19;2057710;28;20034;-44
2021/04/26 01:16:43;;;;;;;6.18;4.53;;;;;;;19.26;45.97;98944.34;2062188;28;20854;-44
2021/04/26 01:17:52;;;;;;;7.63;4.95;;;;;;;19.26;45.90;98944.34;2060971;28;20215;-44
2021/04/26 01:19:06;;;;;;;6.80;4.95;;;;;;;19.25;45.93;98940.72;2060095;28;20037;-45
2021/04/26 01:20:43;;;;;;;5.97;4.57;;;;;;;19.24;45.97;98936.31;2060698;28;20022;-44
2021/04/26 01:22:23;;;;;;;6.70;4.28;;;;;;;19.23;46.03;98933.75;2057641;28;20737;-45
2021/04/26 01:23:32;;;;;;;6.95;4.47;;;;;;;19.22;46.19;98927.44;2061708;28;20081;-45
2021/04/26 01:24:55;;;;;;;5.65;3.90;;;;;;;19.23;45.92;98923.69;2060284;28;20023;-45
2021/04/26 01:25:55;;;;;;;6.95;4.88;;;;;;;19.23;46.02;98922.81;2059462;28;20105;-43
2021/04/26 01:27:17;;;;;;;6.47;4.37;;;;;;;19.23;46.07;98920.97;2056873;28;20026;-43
2021/04/26 01:28:26;;;;;;;6.25;4.25;;;;;;;19.23;46.15;98915.50;2057723;28;20030;-44
2021/04/26 01:29:57;;;;;;;6.63;4.78;;;;;;;19.24;46.15;98919.06;2065027;28;20101;-44
2021/04/26 01:31:02;;;;;;;6.40;4.75;;;;;;;19.24;46.14;98917.19;2058348;28;20031;-45
2021/04/26 01:32:18;;;;;;;5.68;4.35;;;;;;;19.23;46.20;98918.22;2058415;28;20034;-45
2021/04/26 01:33:24;;;;;;;4.97;3.92;;;;;;;19.24;46.08;98921.81;2057079;28;20135;-45
2021/04/26 01:34:26;;;;;;;6.65;4.25;;;;;;;19.25;46.20;98920.75;2063839;28;20022;-45
2021/04/26 01:35:28;;;;;;;6.40;4.25;;;;;;;19.24;46.15;98919.91;2059230;28;20035;-44
2021/04/26 01:36:30;;;;;;;5.75;4.00;;;;;;;19.27;46.27;98924.16;2060101;28;20050;-45
2021/04/26 01:37:34;;;;;;;6.63;4.63;;;;;;;19.26;46.18;98912.41;2064730;28;20034;-45
2021/04/26 01:38:41;;;;;;;6.32;4.45;;;;;;;19.26;46.31;98917.00;2061189;28;20373;-45
2021/04/26 01:39:43;;;;;;;8.35;4.55;;;;;;;19.25;46.17;98916.13;2062528;28;20024;-47
2021/04/26 01:40:46;;;;;;;;;;;;;;;19.23;46.36;98914.63;2063815;28;20022;-44
2021/04/26 01:41:47;;;;;;;6.55;4.55;;;;;;;19.22;46.33;98911.03;2056458;28;20308;-44
2021/04/26 01:42:51;;;;;;;7.27;4.30;;;;;;;19.23;46.19;98915.50;2057068;28;20027;-46
2021/04/26 01:43:54;;;;;;;5.40;4.40;;;;;;;19.23;46.17;98912.75;2061481;28;20324;-46
2021/04/26 01:44:56;;;;;;;6.00;4.15;;;;;;;19.24;46.18;98911.72;2057422;28;20026;-44
2021/04/26 01:46:02;;;;;;;5.85;4.13;;;;;;;19.25;46.28;98904.38;2062518;28;20027;-45
2021/04/26 01:47:07;;;;;;;5.93;4.55;;;;;;;19.24;46.41;98914.44;2059777;28;20420;-47
2021/04/26 01:48:07;;;;;;;5.43;3.83;;;;;;;19.25;46.19;98910.66;2063018;28;20026;-46
2021/04/26 01:49:08;;;;;;;6.93;4.40;;;;;;;19.25;46.19;98905.22;2061494;28;20062;-44
2021/04/26 01:50:11;;;;;;;6.50;4.50;;;;;;;19.25;46.20;98909.81;2056401;28;20406;-46
2021/04/26 01:51:12;;;;;;;6.80;4.15;;;;;;;19.25;46.29;98905.22;2057363;28;20054;-46
2021/04/26 01:52:14;;;;;;;5.95;4.45;;;;;;;19.26;46.24;98908.81;2061716;28;20517;-45
2021/04/26 01:53:21;;;;;;;6.30;4.63;;;;;;;19.24;46.14;98908.97;2062745;28;20030;-44
2021/04/26 01:54:22;;;;;;;6.22;4.00;;;;;;;19.26;46.21;98908.81;2060319;28;20034;-45
2021/04/26 01:55:23;;;;;;;6.30;4.40;;;;;;;19.26;46.17;98906.94;2061000;28;20037;-45
2021/04/26 01:56:24;;;;;;;5.05;3.83;;;;;;;19.26;46.19;98906.94;2058605;28;20030;-47
2021/04/26 01:57:27;;;;;;;8.70;4.50;;;;;;;19.26;46.12;98912.41;2056760;28;20110;-45
2021/04/26 01:58:29;;;;;;;5.00;3.75;;;;;;;19.26;46.13;98900.63;2056328;28;20150;-45
2021/04/26 01:59:32;;;;;;;7.18;4.55;;;;;;;19.25;46.25;98905.22;2058629;28;20027;-46
2021/04/26 02:00:34;;;;;;;5.45;3.88;;;;;;;19.26;46.21;98901.47;2064015;28;20101;-48
2021/04/26 02:01:35;;;;;;;5.53;4.38;;;;;;;19.26;46.28;98906.94;2061646;28;20022;-45
2021/04/26 02:02:36;;;;;;;6.23;4.63;;;;;;;19.26;46.21;98904.19;2059571;28;20508;-45
2021/04/26 02:03:37;;;;;;;6.20;4.43;;;;;;;19.26;46.12;98904.19;2056874;28;20029;-45
2021/04/26 02:04:40;;;;;;;7.30;4.33;;;;;;;19.25;46.17;98898.91;2063364;28;20045;-44
2021/04/26 02:05:41;;;;;;;6.45;4.03;;;;;;;19.26;46.30;98904.19;2060701;28;20054;-44
2021/04/26 02:06:42;;;;;;;6.47;3.93;;;;;;;19.25;46.28;98899.75;2053454;28;20045;-44
2021/04/26 02:07:47;;;;;;;4.97;4.10;;;;;;;19.26;46.27;98900.63;2060397;28;20341;-45
2021/04/26 02:08:48;;;;;;;5.90;4.03;;;;;;;19.25;46.20;98904.38;2064819;28;20444;-44
2021/04/26 02:09:50;;;;;;;6.10;3.77;;;;;;;19.25;46.14;98897.00;2057200;28;20042;-45
2021/04/26 02:10:51;;;;;;;6.95;4.63;;;;;;;19.25;46.16;98899.75;2058327;28;20429;-46
2021/04/26 02:11:53;;;;;;;8.07;4.80;;;;;;;19.26;46.21;98901.47;2056847;28;20034;-44
2021/04/26 02:12:58;;;;;;;5.20;4.10;;;;;;;19.26;46.11;98901.47;2057731;28;20029;-44
2021/04/26 02:13:59;;;;;;;5.72;3.72;;;;;;;19.25;46.26;98894.28;2056600;28;20101;-46
2021/04/26 02:15:01;;;;;;;5.93;4.37;;;;;;;19.25;46.08;98898.91;2061902;28;20034;-44
2021/04/26 02:16:02;;;;;;;5.72;4.00;;;;;;;19.25;45.78;98890.69;2064944;28;20062;-45
2021/04/26 02:17:04;;;;;;;4.90;3.50;;;;;;;19.24;46.13;98889.84;2072510;28;20029;-45
2021/04/26 02:18:05;;;;;;;6.72;4.63;;;;;;;19.25;46.05;98898.91;2059690;28;20038;-45
2021/04/26 02:19:06;;;;;;;5.63;3.90;;;;;;;19.25;46.09;98894.28;2057487;28;20030;-48
2021/04/26 02:20:08;;;;;;;5.72;4.30;;;;;;;19.25;46.20;98888.81;2063283;28;20085;-46
2021/04/26 02:21:09;;;;;;;6.35;4.53;;;;;;;19.24;45.97;98892.59;2064099;28;20033;-45
2021/04/26 02:22:10;;;;;;;6.67;4.73;;;;;;;19.25;46.08;98887.97;2061864;28;20088;-45
2021/04/26 02:23:11;;;;;;;6.10;4.40;;;;;;;19.24;46.23;98886.28;2056427;28;20037;-46
2021/04/26 02:24:12;;;;;;;6.88;4.43;;;;;;;19.24;46.19;98881.66;2056907;28;20035;-46
2021/04/26 02:25:14;;;;;;;5.30;4.23;;;;;;;19.24;46.01;98887.13;2062927;28;20036;-45
2021/04/26 02:26:14;;;;;;;;;;;;;;;19.20;46.21;98887.66;2061996;28;20469;-45
2021/04/26 02:27:15;;;;;;;5.57;4.05;;;;;;;19.21;46.21;98879.31;2061275;28;19969;-46
2021/04/26 02:28:15;;;;;;;5.00;3.70;;;;;;;19.21;46.17;98882.03;2056721;28;20027;-44
2021/04/26 02:29:16;;;;;;;6.90;4.40;;;;;;;19.22;46.21;98881.00;2057023;28;20034;-45
2021/04/26 02:30:17;;;;;;;6.73;4.30;;;;;;;19.23;46.18;98879.97;2061813;28;20064;-47
2021/04/26 02:31:23;;;;;;;5.23;3.67;;;;;;;19.21;46.25;98882.03;2064732;28;20034;-44
2021/04/26 02:32:36;;;;;;;5.10;3.95;;;;;;;19.22;46.31;98881.00;2064137;28;20728;-44
2021/04/26 02:33:43;;;;;;;7.72;5.78;;;;;;;19.22;46.11;98882.88;2057892;28;20031;-46
2021/04/26 02:34:46;;;;;;;6.38;4.25;;;;;;;19.22;46.24;98882.88;2057599;28;20027;-44
2021/04/26 02:35:50;;;;;;;5.55;4.00;;;;;;;19.23;46.28;98879.97;2062195;28;20030;-46
2021/04/26 02:36:55;;;;;;;5.68;4.18;;;;;;;19.23;46.28;98876.38;2056682;28;20062;-44
2021/04/26 02:38:26;;;;;;;5.70;4.28;;;;;;;19.22;46.40;98878.25;2062716;28;20034;-45
2021/04/26 02:39:30;;;;;;;4.72;4.07;;;;;;;19.21;46.31;98879.31;2057562;28;20057;-45
2021/04/26 02:40:35;;;;;;;6.07;3.92;;;;;;;19.22;46.36;98863.75;2063727;28;20344;-45
2021/04/26 02:41:39;;;;;;;4.75;3.58;;;;;;;19.21;46.34;98860.19;2056402;28;20030;-45
2021/04/26 02:42:44;;;;;;;6.22;3.88;;;;;;;19.22;46.33;98861.03;2059806;28;20067;-44
2021/04/26 02:43:50;;;;;;;4.45;3.72;;;;;;;19.21;46.38;98854.72;2062562;28;20034;-45
2021/04/26 02:44:51;;;;;;;4.93;3.70;;;;;;;19.23;46.22;98849.06;2056277;28;20066;-45
2021/04/26 02:45:55;;;;;;;6.10;4.07;;;;;;;19.22;46.33;98850.94;2060491;28;20037;-45
2021/04/26 02:47:03;;;;;;;5.90;4.20;;;;;;;19.23;46.38;98860.84;2059068;28;20027;-45
2021/04/26 02:48:05;;;;;;;7.18;4.28;;;;;;;19.22;46.27;98861.88;2061486;28;20507;-44
2021/04/26 02:49:08;;;;;;;6.60;4.07;;;;;;;19.23;46.23;98859.97;2060577;28;20026;-45
2021/04/26 02:50:11;;;;;;;5.82;3.92;;;;;;;19.22;46.45;98850.94;2058143;28;20090;-45
2021/04/26 02:51:12;;;;;;;5.18;3.80;;;;;;;19.22;46.36;98855.56;2059430;28;20137;-44
2021/04/26 02:52:14;;;;;;;7.25;3.95;;;;;;;19.22;46.29;98853.66;2056846;28;20026;-45
2021/04/26 02:53:16;;;;;;;5.88;4.13;;;;;;;19.23;46.45;98857.25;2057842;28;20030;-44
2021/04/26 02:54:19;;;;;;;5.32;4.28;;;;;;;19.22;46.43;98853.66;2057886;28;20030;-47
2021/04/26 02:55:22;;;;;;;6.85;4.10;;;;;;;19.21;46.34;98849.25;2060786;28;20076;-45
2021/04/26 02:56:23;;;;;;;6.47;4.07;;;;;;;19.22;46.45;98850.94;2063597;28;20033;-44
2021/04/26 02:57:24;;;;;;;6.05;3.90;;;;;;;19.22;46.42;98850.09;2056643;28;20031;-45
2021/04/26 02:58:26;;;;;;;5.32;3.80;;;;;;;19.21;46.38;98854.72;2060799;28;20058;-46
2021/04/26 02:59:27;;;;;;;5.95;4.03;;;;;;;19.22;46.46;98850.94;2058803;28;20085;-46
2021/04/26 03:00:29;;;;;;;6.57;3.90;;;;;;;19.23;46.37;98851.78;2058874;28;20307;-45
2021/04/26 03:01:29;;;;;;;5.82;3.97;;;;;;;19.22;46.43;98856.41;2060387;28;20030;-45
2021/04/26 03:02:31;;;;;;;6.33;3.80;;;;;;;19.23;46.29;98852.66;2058990;28;20063;-45
2021/04/26 03:03:33;;;;;;;5.75;3.70;;;;;;;19.22;46.44;98856.41;2058140;28;20110;-44
2021/04/26 03:04:34;;;;;;;6.13;3.40;;;;;;;19.23;46.40;98851.78;2064972;28;20421;-45
2021/04/26 03:05:34;;;;;;;6.53;4.05;;;;;;;19.22;46.43;98850.94;2060377;28;20713;-44
2021/04/26 03:06:35;;;;;;;5.43;4.13;;;;;;;19.22;46.37;98850.09;2064110;28;20026;-44
2021/04/26 03:07:37;;;;;;;5.53;3.23;;;;;;;19.21;46.49;98849.25;2053280;28;20038;-45
2021/04/26 03:08:39;;;;;;;4.28;3.30;;;;;;;19.22;46.38;98856.41;2064865;28;20045;-45
2021/04/26 03:09:41;;;;;;;4.97;3.83;;;;;;;19.21;46.40;98854.72;2057018;28;20038;-44
2021/04/26 03:10:41;;;;;;;4.47;3.40;;;;;;;19.20;46.37;98847.53;2058081;28;20031;-44
2021/04/26 03:11:44;;;;;;;5.53;4.20;;;;;;;19.20;46.33;98847.53;2055695;28;20030;-44
2021/04/26 03:12:50;;;;;;;6.60;3.63;;;;;;;19.22;46.57;98850.09;2063468;28;20371;-47
2021/04/26 03:13:51;;;;;;;6.78;4.45;;;;;;;19.20;46.51;98846.69;2063128;28;20044;-44
2021/04/26 03:14:52;;;;;;;5.93;3.53;;;;;;;19.20;46.20;98847.53;2056677;28;20457;-44
2021/04/26 03:15:53;;;;;;;4.88;3.70;;;;;;;19.20;46.56;98853.00;2055779;28;20034;-45
2021/04/26 03:16:55;;;;;;;5.75;4.38;;;;;;;19.20;46.38;98853.00;2056659;28;20496;-45
2021/04/26 03:17:56;;;;;;;5.38;3.80;;;;;;;19.20;46.38;98850.25;2057320;28;20037;-45
2021/04/26 03:18:57;;;;;;;5.00;3.73;;;;;;;19.21;46.55;98862.91;2057078;28;20026;-45
2021/04/26 03:19:59;;;;;;;5.40;3.80;;;;;;;19.21;46.44;98851.97;2058641;28;20365;-45
2021/04/26 03:21:02;;;;;;;5.47;3.67;;;;;;;19.19;46.56;98845.84;2060829;28;20030;-45
2021/04/26 03:22:03;;;;;;;5.57;3.80;;;;;;;19.20;46.56;98842.06;2066449;28;20117;-45
2021/04/26 03:23:04;;;;;;;6.82;3.85;;;;;;;19.20;46.51;98836.59;2057091;28;20341;-45
2021/04/26 03:24:06;;;;;;;6.27;3.77;;;;;;;19.20;46.45;98835.75;2060003;28;20034;-45
2021/04/26 03:25:08;;;;;;;5.13;3.92;;;;;;;19.19;46.42;98829.44;2066407;28;20045;-45
2021/04/26 03:26:09;;;;;;;4.75;3.55;;;;;;;19.19;46.45;98829.44;2061319;28;20034;-46
2021/04/26 03:27:10;;;;;;;4.93;3.40;;;;;;;19.19;46.52;98829.44;2060564;28;20331;-44
2021/04/26 03:28:12;;;;;;;5.80;3.40;;;;;;;19.19;46.62;98825.88;2067133;28;20039;-44
2021/04/26 03:29:19;;;;;;;5.65;3.88;;;;;;;19.19;46.46;98824.00;2065148;28;20053;-46
2021/04/26 03:30:24;;;;;;;5.90;4.43;;;;;;;19.18;46.40;98815.97;2057740;28;20045;-44
2021/04/26 03:31:26;;;;;;;4.25;3.40;;;;;;;19.19;46.58;98823.16;2063849;28;20061;-45
2021/04/26 03:32:28;;;;;;;4.35;3.33;;;;;;;19.18;46.46;98827.75;2061434;28;20580;-45
2021/04/26 03:33:33;;;;;;;5.45;3.70;;;;;;;19.19;46.37;98817.69;2070434;28;20502;-44
2021/04/26 03:34:34;;;;;;;6.07;3.95;;;;;;;19.18;46.49;98819.56;2063765;28;20033;-45
2021/04/26 03:35:35;;;;;;;5.93;4.10;;;;;;;19.19;46.43;98818.53;2057612;28;20031;-46
2021/04/26 03:36:37;;;;;;;4.80;3.73;;;;;;;19.19;46.56;98820.41;2061950;28;20573;-45
2021/04/26 03:37:38;;;;;;;;;;;;;;;19.14;46.50;98810.03;2056372;28;20330;-44
2021/04/26 03:38:38;;;;;;;4.57;3.40;;;;;;;19.15;46.57;98813.59;2064722;28;20021;-44
2021/04/26 03:39:39;;;;;;;4.90;3.80;;;;;;;19.14;46.61;98804.56;2065684;28;20026;-45
2021/04/26 03:40:41;;;;;;;5.80;3.70;;;;;;;19.15;46.54;98806.25;2064283;28;20077;-45
2021/04/26 03:41:42;;;;;;;4.60;3.72;;;;;;;19.16;46.49;98799.78;2061117;28;20026;-46
2021/04/26 03:42:43;;;;;;;5.43;4.18;;;;;;;19.15;46.43;98800.78;2065271;28;20032;-43
2021/04/26 03:43:44;;;;;;;5.03;3.67;;;;;;;19.16;46.45;98802.50;2072411;28;20036;-45
2021/04/26 03:44:49;;;;;;;5.63;4.05;;;;;;;19.17;46.53;98796.00;2065821;28;20066;-45
2021/04/26 03:45:51;;;;;;;6.38;4.07;;;;;;;19.15;46.46;98784.41;2063003;28;20030;-44
2021/04/26 03:46:57;;;;;;;5.82;3.80;;;;;;;19.15;46.58;98784.41;2057898;28;20030;-44
2021/04/26 03:47:58;;;;;;;4.65;3.33;;;;;;;19.17;46.49;98786.97;2057966;28;20031;-44
2021/04/26 03:48:58;;;;;;;6.43;3.47;;;;;;;19.16;46.40;98780.66;2059546;28;20054;-45
2021/04/26 03:49:59;;;;;;;5.27;3.70;;;;;;;19.16;46.46;98780.66;2064588;28;20155;-44
2021/04/26 03:50:59;;;;;;;4.63;3.80;;;;;;;19.17;46.56;98782.34;2057985;28;20058;-45
2021/04/26 03:52:00;;;;;;;5.73;4.07;;;;;;;19.16;46.42;98791.56;2058530;28;20031;-46
2021/04/26 03:53:00;;;;;;;5.37;3.67;;;;;;;19.16;46.37;98777.91;2059720;28;20108;-45
2021/04/26 03:54:00;;;;;;;5.87;3.37;;;;;;;19.17;46.47;98782.34;2065497;28;20026;-46
2021/04/26 03:55:02;;;;;;;5.27;3.67;;;;;;;19.17;46.65;98776.88;2063880;28;20101;-45
2021/04/26 03:56:02;;;;;;;5.15;3.55;;;;;;;19.17;46.49;98776.88;2065828;28;20117;-44
2021/04/26 03:57:04;;;;;;;5.07;3.90;;;;;;;19.16;46.53;98777.91;2060382;28;20031;-44
2021/04/26 03:58:06;;;;;;;4.82;3.63;;;;;;;19.16;46.45;98775.19;2060216;28;20125;-47
2021/04/26 03:59:07;;;;;;;5.28;3.85;;;;;;;19.17;46.48;98778.75;2058634;28;20066;-45
2021/04/26 04:00:10;;;;;;;4.13;3.40;;;;;;;19.18;46.50;98781.31;2061496;28;20061;-44
2021/04/26 04:01:10;;;;;;;5.03;3.53;;;;;;;19.16;46.51;98769.72;2064890;28;20026;-48
2021/04/26 04:02:11;;;;;;;4.73;3.67;;;;;;;19.16;46.57;98775.19;2058455;28;20836;-44
2021/04/26 04:03:13;;;;;;;5.57;3.83;;;;;;;19.17;46.53;98776.88;2059697;28;20023;-45
2021/04/26 04:04:14;;;;;;;5.93;3.85;;;;;;;19.17;46.47;98774.16;2066012;28;20022;-45
2021/04/26 04:05:15;;;;;;;5.73;3.87;;;;;;;19.17;46.42;98782.34;2060808;28;20022;-44
2021/04/26 04:06:16;;;;;;;4.68;3.05;;;;;;;19.17;46.59;98767.84;2059633;28;20050;-44
2021/04/26 04:07:16;;;;;;;4.97;3.50;;;;;;;19.16;46.44;98764.25;2061922;28;20084;-50
2021/04/26 04:08:17;;;;;;;5.03;3.57;;;;;;;19.16;46.62;98769.72;2058692;28;20022;-45
2021/04/26 04:09:17;;;;;;;5.07;3.27;;;;;;;19.16;46.58;98769.72;2066075;28;20137;-46
2021/04/26 04:10:18;;;;;;;5.20;3.37;;;;;;;19.17;46.41;98765.09;2061396;28;20034;-45
2021/04/26 04:11:18;;;;;;;5.87;3.57;;;;;;;19.17;46.48;98760.50;2062971;28;20105;-45
2021/04/26 04:12:19;;;;;;;4.87;3.37;;;;;;;19.17;46.53;98755.03;2062656;28;20018;-43
2021/04/26 04:13:19;;;;;;;4.73;3.67;;;;;;;19.17;46.45;98749.56;2060676;28;20569;-46
2021/04/26 04:14:20;;;;;;;4.90;3.20;;;;;;;19.16;46.46;98761.53;2063971;28;20026;-44
2021/04/26 04:15:20;;;;;;;3.93;3.30;;;;;;;19.17;46.50;98754.19;2064206;28;20109;-45
2021/04/26 04:16:21;;;;;;;6.20;4.00;;;;;;;19.16;46.56;98764.25;2063090;28;20039;-45
2021/04/26 04:17:21;;;;;;;4.87;3.27;;;;;;;19.16;46.56;98747.88;2059925;28;20025;-44
2021/04/26 04:18:22;;;;;;;4.77;3.37;;;;;;;19.15;46.41;98746.16;2061633;28;20101;-44
2021/04/26 04:19:22;;;;;;;6.33;3.40;;;;;;;19.14;46.41;98741.75;2063408;28;20081;-44
2021/04/26 04:20:23;;;;;;;5.17;3.60;;;;;;;19.15;46.45;98757.09;2059280;28;20050;-46
2021/04/26 04:21:24;;;;;;;3.93;3.20;;;;;;;19.16;46.57;98747.88;2064636;28;20038;-45
2021/04/26 04:22:24;;;;;;;5.60;3.60;;;;;;;19.16;46.43;98747.88;2060280;28;20615;-47
2021/04/26 04:23:25;;;;;;;4.93;3.33;;;;;;;19.17;46.45;98748.72;2064545;28;20048;-45
2021/04/26 04:24:25;;;;;;;4.90;3.70;;;;;;;19.16;46.42;98745.16;2065623;28;20017;-45
2021/04/26 04:25:26;;;;;;;5.43;3.53;;;;;;;19.16;46.57;98742.41;2059457;28;20054;-47
2021/04/26 04:26:29;;;;;;;5.10;3.50;;;;;;;19.16;46.38;98741.56;2064073;28;20153;-45
2021/04/26 04:27:30;;;;;;;4.78;3.22;;;;;;;19.16;46.25;98747.88;2058204;28;20050;-44
2021/04/26 04:28:30;;;;;;;8.23;3.37;;;;;;;19.15;46.46;98746.16;2063786;28;20029;-45
2021/04/26 04:29:31;;;;;;;4.33;3.07;;;;;;;19.16;46.45;98742.41;2057495;28;20033;-45
2021/04/26 04:30:31;;;;;;;6.10;3.70;;;;;;;19.16;46.40;98744.31;2059802;28;20034;-45
2021/04/26 04:31:32;;;;;;;4.87;3.60;;;;;;;19.16;46.35;98738.84;2063751;28;20026;-45
2021/04/26 04:32:32;;;;;;;4.77;3.77;;;;;;;19.16;46.42;98742.41;2058808;28;20257;-44
2021/04/26 04:33:33;;;;;;;3.43;2.83;;;;;;;19.16;46.46;98745.16;2059138;28;20096;-45
2021/04/26 04:34:35;;;;;;;5.57;3.30;;;;;;;19.16;46.37;98741.56;2062276;28;20023;-45
2021/04/26 04:35:36;;;;;;;;;;;;;;;19.11;46.47;98747.56;2056833;28;20056;-45
2021/04/26 04:36:36;;;;;;;4.30;3.03;;;;;;;19.12;46.61;98741.06;2059022;28;19953;-45
2021/04/26 04:37:37;;;;;;;5.17;3.80;;;;;;;19.14;46.61;98747.19;2058693;28;20429;-44
2021/04/26 04:38:37;;;;;;;5.80;3.57;;;;;;;19.14;46.49;98739.00;2063009;28;20109;-46
2021/04/26 04:39:38;;;;;;;4.30;3.23;;;;;;;19.13;46.46;98737.28;2057278;28;20042;-44
2021/04/26 04:40:39;;;;;;;5.30;3.57;;;;;;;19.15;46.65;98740.69;2061933;28;20030;-44
2021/04/26 04:41:39;;;;;;;4.47;3.33;;;;;;;19.15;46.50;98743.44;2064573;28;20106;-47
2021/04/26 04:42:39;;;;;;;5.17;3.30;;;;;;;19.14;46.43;98747.19;2064772;28;20117;-45
2021/04/26 04:43:40;;;;;;;4.43;3.60;;;;;;;19.14;46.43;98744.47;2062386;28;20426;-44
2021/04/26 04:44:41;;;;;;;4.73;3.00;;;;;;;19.17;46.50;98737.78;2065030;28;20026;-46
2021/04/26 04:45:41;;;;;;;4.75;3.60;;;;;;;19.15;46.38;98740.69;2063199;28;20425;-45
2021/04/26 04:46:42;;;;;;;7.20;3.90;;;;;;;19.15;46.44;98739.84;2057804;28;20054;-45
2021/04/26 04:47:43;;;;;;;7.17;3.53;;;;;;;19.15;46.37;98746.16;2057653;28;20038;-44
2021/04/26 04:48:44;;;;;;;8.73;3.20;;;;;;;19.13;46.48;98734.56;2061611;28;20104;-48
2021/04/26 04:49:45;;;;;;;5.53;3.55;;;;;;;19.14;46.44;98747.19;2059525;28;20070;-45
2021/04/26 04:50:45;;;;;;;7.20;3.17;;;;;;;19.13;46.54;98741.91;2058730;28;20405;-45
2021/04/26 04:51:46;;;;;;;6.27;3.47;;;;;;;19.14;46.53;98735.44;2057925;28;20023;-47
2021/04/26 04:52:46;;;;;;;5.47;3.43;;;;;;;19.13;46.54;98742.75;2060535;28;20018;-44
2021/04/26 04:53:47;;;;;;;6.80;3.73;;;;;;;19.14;46.37;98736.28;2060319;28;20057;-45
2021/04/26 04:54:47;;;;;;;5.43;3.30;;;;;;;19.12;46.56;98741.06;2060012;28;20030;-45